Time;durP1;ratioP1;P1;durP2;ratioP2;P2;SDS_P1;SDS_P2;PMS_P1;PMS_P2;Temp;Humidity;BMP_temperature;BMP_pressure;BME280_temperature;BME280_humidity;BME280_pressure;Samples;Min_cycle;Max_cycle;Signal;HPM_P1;HPM_P2
2023/09/02 00:00:09;;;;;;;0.60;0.40;;;16.40;99.90;;;;;;5063671;28;20459;-76
2023/09/02 00:02:36;;;;;;;0.50;0.40;;;16.40;99.90;;;;;;5073390;28;20443;-80
2023/09/02 00:05:02;;;;;;;0.50;0.40;;;16.40;99.90;;;;;;5064635;28;20885;-79
2023/09/02 00:07:29;;;;;;;0.77;0.77;;;16.40;99.90;;;;;;5052921;28;20440;-80
2023/09/02 00:09:56;;;;;;;0.50;0.30;;;16.30;99.90;;;;;;5060462;28;20485;-78
2023/09/02 00:12:24;;;;;;;0.50;0.30;;;16.40;99.90;;;;;;5052919;28;20446;-80
2023/09/02 00:14:51;;;;;;;1.03;1.03;;;16.40;99.90;;;;;;5061125;28;20449;-79
2023/09/02 00:17:19;;;;;;;0.50;0.30;;;16.30;99.90;;;;;;5060985;28;20446;-77
2023/09/02 00:19:45;;;;;;;0.50;0.30;;;16.30;99.90;;;;;;5052031;28;20824;-79
2023/09/02 00:22:14;;;;;;;0.50;0.40;;;16.30;99.90;;;;;;5060689;28;20442;-78
2023/09/02 00:24:41;;;;;;;0.50;0.40;;;16.20;99.90;;;;;;5057626;28;20450;-80
2023/09/02 00:27:08;;;;;;;0.50;0.30;;;16.20;99.90;;;;;;5063771;28;20515;-79
2023/09/02 00:29:36;;;;;;;0.50;0.30;;;16.20;99.90;;;;;;5060762;28;20578;-80
2023/09/02 00:32:03;;;;;;;0.50;0.30;;;16.20;99.90;;;;;;5052139;28;20980;-79
2023/09/02 00:34:30;;;;;;;0.50;0.40;;;16.20;99.90;;;;;;5044412;28;20475;-79
2023/09/02 00:36:56;;;;;;;0.50;0.30;;;16.10;99.90;;;;;;5061264;28;20447;-81
2023/09/02 00:39:23;;;;;;;0.50;0.40;;;16.10;99.90;;;;;;5054410;28;20445;-80
2023/09/02 00:41:53;;;;;;;0.50;0.30;;;16.10;99.90;;;;;;5064298;28;20445;-80
2023/09/02 00:44:20;;;;;;;0.50;0.30;;;16.10;99.90;;;;;;5064091;28;20530;-79
2023/09/02 00:46:48;;;;;;;0.50;0.30;;;16.10;99.90;;;;;;5072336;28;20444;-78
2023/09/02 00:49:15;;;;;;;0.50;0.30;;;16.10;99.90;;;;;;5061915;28;20529;-80
2023/09/02 00:51:42;;;;;;;0.50;0.30;;;16.20;99.90;;;;;;5057271;28;20445;-79
2023/09/02 00:54:09;;;;;;;0.50;0.30;;;16.20;99.90;;;;;;5055333;28;20442;-79
2023/09/02 00:56:37;;;;;;;0.50;0.30;;;16.20;99.90;;;;;;5072015;28;20827;-79
2023/09/02 00:59:05;;;;;;;0.50;0.30;;;16.20;99.90;;;;;;5072190;28;20913;-80
2023/09/02 01:01:34;;;;;;;0.50;0.30;;;16.20;99.90;;;;;;5044134;28;20446;-79
2023/09/02 01:04:04;;;;;;;0.50;0.40;;;16.10;99.90;;;;;;5052059;28;20975;-79
2023/09/02 01:06:31;;;;;;;0.50;0.30;;;16.00;99.90;;;;;;5055092;28;20437;-79
2023/09/02 01:08:58;;;;;;;0.50;0.37;;;16.00;99.90;;;;;;5064449;28;20451;-79
2023/09/02 01:11:25;;;;;;;0.50;0.40;;;16.00;99.90;;;;;;5063342;28;20474;-79
2023/09/02 01:13:51;;;;;;;0.50;0.40;;;16.00;99.90;;;;;;5056406;28;20804;-79
2023/09/02 01:16:18;;;;;;;0.50;0.40;;;16.10;99.90;;;;;;5064527;28;20445;-78
2023/09/02 01:18:46;;;;;;;0.50;0.30;;;16.20;99.90;;;;;;5055847;28;20542;-79
2023/09/02 01:21:40;;;;;;;0.50;0.40;;;16.20;99.90;;;;;;5064725;28;20473;-81
2023/09/02 01:24:31;;;;;;;0.50;0.30;;;16.30;99.90;;;;;;5075713;28;20540;-78
2023/09/02 01:27:19;;;;;;;0.50;0.30;;;16.40;99.90;;;;;;5054139;28;20449;-80
2023/09/02 01:29:55;;;;;;;0.50;0.30;;;16.50;99.90;;;;;;5057617;28;20985;-80
2023/09/02 01:32:23;;;;;;;0.50;0.30;;;16.50;99.90;;;;;;5057624;28;20438;-79
2023/09/02 01:34:51;;;;;;;0.50;0.30;;;16.50;99.90;;;;;;5069703;28;20448;-78
2023/09/02 01:37:20;;;;;;;0.50;0.30;;;16.60;99.90;;;;;;5063499;28;20820;-77
2023/09/02 01:39:50;;;;;;;0.50;0.30;;;16.60;99.90;;;;;;5055318;28;20542;-79
2023/09/02 01:42:19;;;;;;;0.50;0.40;;;16.60;99.90;;;;;;5055202;28;20447;-79
2023/09/02 01:44:46;;;;;;;0.50;0.40;;;16.60;99.90;;;;;;5063572;28;20439;-79
2023/09/02 01:47:15;;;;;;;0.50;0.30;;;16.60;99.90;;;;;;5064256;28;20438;-79
2023/09/02 01:49:43;;;;;;;0.50;0.30;;;16.60;99.90;;;;;;5062036;28;20903;-80
2023/09/02 01:52:10;;;;;;;0.50;0.30;;;16.60;99.90;;;;;;5063287;28;20480;-78
2023/09/02 01:54:37;;;;;;;0.50;0.30;;;16.70;99.90;;;;;;5067855;28;20526;-80
2023/09/02 01:57:04;;;;;;;0.50;0.40;;;16.60;99.90;;;;;;5075223;28;20439;-79
2023/09/02 01:59:32;;;;;;;0.50;0.40;;;16.60;99.90;;;;;;5066396;28;20458;-79
2023/09/02 02:02:01;;;;;;;0.50;0.40;;;16.50;99.90;;;;;;5068209;28;20443;-79
2023/09/02 02:04:35;;;;;;;0.50;0.30;;;16.50;99.90;;;;;;5054795;28;20439;-78
2023/09/02 02:07:06;;;;;;;0.50;0.33;;;16.50;99.90;;;;;;5055069;28;20450;-79
2023/09/02 02:09:39;;;;;;;0.50;0.40;;;16.50;99.90;;;;;;5062913;28;20462;-79
2023/09/02 02:12:08;;;;;;;0.50;0.40;;;16.60;99.90;;;;;;5063516;28;20534;-80
2023/09/02 02:14:36;;;;;;;0.50;0.40;;;16.60;99.90;;;;;;5054952;28;20433;-78
2023/09/02 02:17:04;;;;;;;0.50;0.40;;;16.60;99.90;;;;;;5063436;28;20815;-79
2023/09/02 02:19:31;;;;;;;0.50;0.30;;;16.60;99.90;;;;;;5063006;28;20460;-79
2023/09/02 02:21:58;;;;;;;0.50;0.30;;;16.60;99.90;;;;;;5061879;28;20505;-78
2023/09/02 02:24:25;;;;;;;0.50;0.40;;;16.70;99.90;;;;;;5056779;28;20931;-78
2023/09/02 02:26:52;;;;;;;0.50;0.30;;;16.70;99.90;;;;;;5068843;28;20950;-80
2023/09/02 02:29:19;;;;;;;0.50;0.30;;;16.70;99.90;;;;;;5072007;28;20438;-79
2023/09/02 02:31:47;;;;;;;0.50;0.40;;;16.70;99.90;;;;;;5069268;28;21017;-81
2023/09/02 02:34:14;;;;;;;0.50;0.33;;;16.70;99.90;;;;;;5063509;28;20533;-78
2023/09/02 02:36:41;;;;;;;0.50;0.37;;;16.60;99.90;;;;;;5066270;28;20817;-79
2023/09/02 02:39:09;;;;;;;0.50;0.30;;;16.50;99.90;;;;;;5065921;28;20444;-76
2023/09/02 02:41:35;;;;;;;0.50;0.30;;;16.50;99.90;;;;;;5049538;28;20513;-79
2023/09/02 02:44:03;;;;;;;0.50;0.40;;;16.50;99.90;;;;;;5074110;28;20446;-78
2023/09/02 02:46:30;;;;;;;0.50;0.30;;;16.50;99.90;;;;;;5065602;28;21007;-79
2023/09/02 02:48:58;;;;;;;0.50;0.33;;;16.40;99.90;;;;;;5066144;28;20474;-80
2023/09/02 02:51:25;;;;;;;0.50;0.30;;;16.40;99.90;;;;;;5057349;28;20484;-80
2023/09/02 02:53:52;;;;;;;0.50;0.30;;;16.40;99.90;;;;;;5074183;28;20439;-78
2023/09/02 02:56:19;;;;;;;0.50;0.30;;;16.40;99.90;;;;;;5057202;28;20526;-77
2023/09/02 02:58:46;;;;;;;0.50;0.30;;;16.40;99.90;;;;;;5068988;28;20450;-78
2023/09/02 03:01:13;;;;;;;0.50;0.30;;;16.40;99.90;;;;;;5061536;28;20459;-78
2023/09/02 03:03:40;;;;;;;0.50;0.30;;;16.40;99.90;;;;;;5066122;28;20445;-79
2023/09/02 03:06:08;;;;;;;0.50;0.40;;;16.40;99.90;;;;;;5065652;28;20451;-78
2023/09/02 03:08:36;;;;;;;0.50;0.30;;;16.40;99.90;;;;;;5062121;28;20439;-79
2023/09/02 03:11:05;;;;;;;0.50;0.40;;;16.40;99.90;;;;;;5053427;28;21004;-79
2023/09/02 03:13:33;;;;;;;0.50;0.30;;;16.50;99.90;;;;;;5061777;28;20439;-79
2023/09/02 03:16:01;;;;;;;0.50;0.40;;;16.50;99.90;;;;;;5060629;28;20450;-80
2023/09/02 03:18:28;;;;;;;0.50;0.33;;;16.50;99.90;;;;;;5070963;28;20445;-81
2023/09/02 03:20:55;;;;;;;0.50;0.30;;;16.50;99.90;;;;;;5058909;28;20461;-79
2023/09/02 03:23:23;;;;;;;0.50;0.30;;;16.50;99.90;;;;;;5063743;28;20450;-79
2023/09/02 03:25:50;;;;;;;0.50;0.30;;;16.50;99.90;;;;;;5061839;28;20839;-78
2023/09/02 03:28:17;;;;;;;0.50;0.40;;;16.40;99.90;;;;;;5080252;22;20481;-82
2023/09/02 03:30:44;;;;;;;0.50;0.37;;;16.30;99.90;;;;;;5020568;28;20475;-81
2023/09/02 03:33:14;;;;;;;0.50;0.30;;;16.30;99.90;;;;;;5028259;28;20448;-82
2023/09/02 03:35:41;;;;;;;0.50;0.37;;;16.30;99.90;;;;;;5011391;28;20498;-82
2023/09/02 03:38:08;;;;;;;0.50;0.30;;;16.20;99.90;;;;;;5031999;28;20460;-80
2023/09/02 03:40:36;;;;;;;0.50;0.30;;;16.20;99.90;;;;;;5035666;28;20443;-80
2023/09/02 03:43:03;;;;;;;0.50;0.40;;;16.10;99.90;;;;;;5035908;28;20535;-82
2023/09/02 03:45:30;;;;;;;0.50;0.30;;;16.10;99.90;;;;;;5036276;28;20524;-82
2023/09/02 03:47:57;;;;;;;0.50;0.30;;;16.10;99.90;;;;;;5035232;28;20471;-81
2023/09/02 03:50:25;;;;;;;0.50;0.30;;;16.10;99.90;;;;;;5034833;28;20480;-82
2023/09/02 03:52:52;;;;;;;0.50;0.40;;;16.00;99.90;;;;;;5035312;28;20444;-81
2023/09/02 03:55:18;;;;;;;0.70;0.60;;;16.00;99.90;;;;;;5034844;28;20444;-82
2023/09/02 03:57:47;;;;;;;0.50;0.37;;;16.00;99.90;;;;;;5035806;28;20500;-81
2023/09/02 04:00:15;;;;;;;0.50;0.30;;;16.00;99.90;;;;;;5034939;28;20445;-83
2023/09/02 04:02:42;;;;;;;0.50;0.40;;;15.90;99.90;;;;;;5020256;28;20448;-83
2023/09/02 04:05:09;;;;;;;0.50;0.40;;;15.90;99.90;;;;;;5035201;28;20958;-81
2023/09/02 04:07:37;;;;;;;0.50;0.40;;;15.90;99.90;;;;;;5035235;28;20449;-81
2023/09/02 04:10:04;;;;;;;0.50;0.30;;;15.90;99.90;;;;;;5034297;28;20512;-81
2023/09/02 04:12:31;;;;;;;0.50;0.40;;;15.90;99.90;;;;;;5034217;28;20450;-83
2023/09/02 04:14:59;;;;;;;1.90;1.60;;;15.90;99.90;;;;;;5034513;28;20448;-80
2023/09/02 04:17:26;;;;;;;0.50;0.30;;;15.90;99.90;;;;;;5034022;28;20465;-82
2023/09/02 04:19:54;;;;;;;0.50;0.30;;;15.90;99.90;;;;;;5034535;28;20440;-81
2023/09/02 04:22:21;;;;;;;0.50;0.40;;;15.90;99.90;;;;;;5034078;28;20443;-81
2023/09/02 04:24:48;;;;;;;1.17;0.77;;;15.90;99.90;;;;;;5033943;28;20445;-82
2023/09/02 04:27:15;;;;;;;0.50;0.30;;;15.90;99.90;;;;;;5034105;28;20469;-83
2023/09/02 04:29:41;;;;;;;0.83;0.57;;;15.90;99.90;;;;;;5018241;28;20436;-81
2023/09/02 04:32:11;;;;;;;0.50;0.40;;;15.90;99.90;;;;;;5035214;28;20475;-83
2023/09/02 04:34:38;;;;;;;0.50;0.40;;;15.90;99.90;;;;;;5035463;28;20440;-82
2023/09/02 04:37:05;;;;;;;0.50;0.30;;;16.00;99.90;;;;;;5035546;28;20472;-83
2023/09/02 04:39:32;;;;;;;0.50;0.40;;;16.00;99.90;;;;;;5034328;28;20530;-79
2023/09/02 04:41:59;;;;;;;0.50;0.30;;;15.90;99.90;;;;;;5035980;28;20446;-83
2023/09/02 04:44:26;;;;;;;0.50;0.40;;;15.90;99.90;;;;;;5035842;28;20468;-81
2023/09/02 04:46:52;;;;;;;0.70;0.53;;;15.90;99.90;;;;;;5035723;28;20490;-82
2023/09/02 04:49:21;;;;;;;0.50;0.40;;;15.90;99.90;;;;;;5035795;28;20446;-81
2023/09/02 04:51:49;;;;;;;0.50;0.30;;;16.00;99.90;;;;;;5035978;28;20542;-82
2023/09/02 04:54:16;;;;;;;0.50;0.40;;;16.00;99.90;;;;;;5036241;28;20440;-82
2023/09/02 04:56:42;;;;;;;0.50;0.40;;;16.00;99.90;;;;;;5035538;28;21014;-81
2023/09/02 04:59:09;;;;;;;0.97;0.97;;;16.00;99.90;;;;;;5035694;28;20532;-81
2023/09/02 05:01:36;;;;;;;0.50;0.40;;;16.00;99.90;;;;;;5036290;28;20467;-80
2023/09/02 05:04:03;;;;;;;0.50;0.37;;;16.00;99.90;;;;;;5036088;28;20450;-82
2023/09/02 05:06:31;;;;;;;0.50;0.40;;;16.00;99.90;;;;;;5035768;28;20439;-82
2023/09/02 05:08:58;;;;;;;0.60;0.60;;;16.10;99.90;;;;;;5036174;28;20441;-80
2023/09/02 05:11:25;;;;;;;0.50;0.33;;;16.10;99.90;;;;;;5036213;28;20570;-82
2023/09/02 05:13:52;;;;;;;0.50;0.30;;;16.10;99.90;;;;;;5036256;28;20887;-80
2023/09/02 05:16:19;;;;;;;0.50;0.40;;;16.10;99.90;;;;;;5035717;28;20447;-81
2023/09/02 05:18:45;;;;;;;0.50;0.30;;;16.20;99.90;;;;;;5036108;28;20474;-82
2023/09/02 05:21:12;;;;;;;0.50;0.30;;;16.20;99.90;;;;;;5035902;28;20437;-81
2023/09/02 05:23:40;;;;;;;0.50;0.30;;;16.20;99.90;;;;;;5035892;28;20539;-80
2023/09/02 05:26:07;;;;;;;0.50;0.40;;;16.30;99.90;;;;;;5036462;28;20443;-82
2023/09/02 05:28:34;;;;;;;0.50;0.30;;;16.30;99.90;;;;;;5036231;28;20550;-80
2023/09/02 05:31:01;;;;;;;0.50;0.30;;;16.30;99.90;;;;;;5036238;28;20485;-82
2023/09/02 05:33:28;;;;;;;0.50;0.30;;;16.40;99.90;;;;;;5035748;28;20441;-81
2023/09/02 05:35:55;;;;;;;0.50;0.30;;;16.40;99.90;;;;;;5035908;28;20462;-79
2023/09/02 05:38:22;;;;;;;0.50;0.30;;;16.50;99.90;;;;;;5036240;28;20491;-83
2023/09/02 05:40:50;;;;;;;0.50;0.30;;;16.50;99.90;;;;;;5035573;28;20527;-80
2023/09/02 05:43:17;;;;;;;0.50;0.30;;;16.50;99.90;;;;;;5035720;28;20524;-80
2023/09/02 05:45:44;;;;;;;0.50;0.40;;;16.50;99.90;;;;;;5035762;28;20441;-81
2023/09/02 05:48:12;;;;;;;0.50;0.40;;;16.60;99.90;;;;;;5035647;28;20899;-79
2023/09/02 05:50:38;;;;;;;0.50;0.30;;;16.60;99.90;;;;;;5035308;28;20526;-80
2023/09/02 05:53:05;;;;;;;0.50;0.40;;;16.60;99.90;;;;;;5035593;28;20448;-80
2023/09/02 05:55:32;;;;;;;0.50;0.30;;;16.70;99.90;;;;;;5036444;28;20514;-80
2023/09/02 05:58:00;;;;;;;0.50;0.30;;;16.70;99.90;;;;;;5039840;28;20464;-82
2023/09/02 06:00:27;;;;;;;0.50;0.30;;;16.70;99.90;;;;;;5039207;28;20522;-81
2023/09/02 06:02:54;;;;;;;0.50;0.30;;;16.80;99.90;;;;;;5039760;28;20531;-81
2023/09/02 06:05:21;;;;;;;0.50;0.40;;;16.80;99.90;;;;;;5039298;28;20486;-81
2023/09/02 06:07:47;;;;;;;0.50;0.30;;;16.80;99.90;;;;;;5039618;28;20456;-80
2023/09/02 06:10:14;;;;;;;0.50;0.40;;;16.90;99.90;;;;;;5039523;28;20622;-80
2023/09/02 06:12:41;;;;;;;0.50;0.40;;;16.90;99.90;;;;;;5039014;28;20486;-80
2023/09/02 06:15:11;;;;;;;0.50;0.30;;;16.90;99.90;;;;;;5039067;28;20526;-81
2023/09/02 06:17:37;;;;;;;0.50;0.40;;;16.90;99.90;;;;;;5038996;28;20535;-80
2023/09/02 06:20:05;;;;;;;0.50;0.30;;;17.00;99.90;;;;;;5038830;28;20532;-81
2023/09/02 06:22:32;;;;;;;0.50;0.40;;;17.00;99.90;;;;;;5038603;28;20442;-81
2023/09/02 06:24:59;;;;;;;0.50;0.40;;;17.00;99.90;;;;;;5038715;28;20444;-80
2023/09/02 06:27:26;;;;;;;0.50;0.30;;;17.10;99.90;;;;;;5038503;28;20471;-81
2023/09/02 06:29:52;;;;;;;0.50;0.30;;;17.10;99.90;;;;;;5038379;28;20444;-80
2023/09/02 06:32:21;;;;;;;0.50;0.30;;;17.10;99.90;;;;;;5039105;28;20483;-81
2023/09/02 06:34:47;;;;;;;0.50;0.30;;;17.20;99.90;;;;;;5039061;28;20436;-80
2023/09/02 06:37:14;;;;;;;0.50;0.30;;;17.20;99.90;;;;;;5038601;28;20467;-81
2023/09/02 06:39:41;;;;;;;0.50;0.40;;;17.30;99.90;;;;;;5037926;28;20466;-80
2023/09/02 06:42:08;;;;;;;0.50;0.30;;;17.30;99.90;;;;;;5039213;28;20519;-80
2023/09/02 06:44:35;;;;;;;0.50;0.30;;;17.50;99.90;;;;;;5038377;28;20436;-81
2023/09/02 06:47:01;;;;;;;0.50;0.30;;;17.60;99.90;;;;;;5038883;28;20547;-80
2023/09/02 06:49:32;;;;;;;0.50;0.40;;;17.70;99.90;;;;;;5037792;28;20448;-80
2023/09/02 06:51:58;;;;;;;0.50;0.30;;;17.80;99.90;;;;;;5037624;28;20479;-79
2023/09/02 06:54:25;;;;;;;0.50;0.30;;;17.90;99.90;;;;;;5038158;28;20532;-80
2023/09/02 06:56:52;;;;;;;0.50;0.30;;;18.00;99.90;;;;;;5037860;28;20487;-80
2023/09/02 06:59:19;;;;;;;0.50;0.30;;;18.10;99.90;;;;;;5038000;28;20882;-80
2023/09/02 07:01:46;;;;;;;0.50;0.30;;;18.20;99.90;;;;;;5029591;28;20447;-80
2023/09/02 07:04:13;;;;;;;0.50;0.30;;;18.30;99.90;;;;;;5038144;28;20523;-80
2023/09/02 07:06:41;;;;;;;0.50;0.30;;;18.40;99.90;;;;;;5037662;28;20479;-80
2023/09/02 07:09:08;;;;;;;0.50;0.33;;;18.50;99.90;;;;;;5037849;28;20883;-80
2023/09/02 07:11:35;;;;;;;0.50;0.30;;;18.60;99.90;;;;;;5038049;28;20485;-80
2023/09/02 07:14:02;;;;;;;0.50;0.30;;;18.60;99.90;;;;;;5040124;28;20772;-79
2023/09/02 07:16:29;;;;;;;0.50;0.30;;;18.70;99.90;;;;;;5040719;28;20442;-79
2023/09/02 07:18:58;;;;;;;0.50;0.30;;;18.70;99.90;;;;;;5038080;28;20439;-79
2023/09/02 07:21:25;;;;;;;0.50;0.30;;;18.80;99.90;;;;;;5037601;28;20437;-79
2023/09/02 07:23:53;;;;;;;0.50;0.30;;;18.80;99.90;;;;;;5037506;28;20790;-80
2023/09/02 07:26:20;;;;;;;0.50;0.30;;;19.00;99.90;;;;;;5036791;28;20445;-80
2023/09/02 07:28:47;;;;;;;0.50;0.30;;;19.00;99.90;;;;;;5036292;28;20502;-79
2023/09/02 07:31:14;;;;;;;0.50;0.30;;;19.10;99.90;;;;;;5036250;28;20505;-79
2023/09/02 07:33:42;;;;;;;0.50;0.30;;;19.20;99.90;;;;;;5037236;28;20535;-77
2023/09/02 07:36:09;;;;;;;36.80;34.20;;;19.30;99.90;;;;;;5038030;28;20532;-80
2023/09/02 07:38:36;;;;;;;0.50;0.30;;;19.30;99.90;;;;;;5037560;28;20543;-80
2023/09/02 07:41:04;;;;;;;0.50;0.30;;;19.50;99.90;;;;;;5037458;28;20451;-79
2023/09/02 07:43:31;;;;;;;0.50;0.30;;;19.50;99.90;;;;;;5037489;28;20476;-80
2023/09/02 07:45:58;;;;;;;0.50;0.40;;;19.50;99.90;;;;;;5036854;28;20921;-81
2023/09/02 07:48:25;;;;;;;0.50;0.30;;;19.50;99.90;;;;;;5037346;28;20497;-79
2023/09/02 07:50:52;;;;;;;0.50;0.40;;;19.50;99.90;;;;;;5037077;28;20983;-80
2023/09/02 07:53:19;;;;;;;0.50;0.30;;;19.60;99.90;;;;;;5037545;28;20480;-80
2023/09/02 07:55:46;;;;;;;0.50;0.30;;;19.60;99.90;;;;;;5037821;28;20438;-80
2023/09/02 07:58:14;;;;;;;0.50;0.30;;;19.60;99.90;;;;;;5037116;28;20983;-81
2023/09/02 08:00:41;;;;;;;0.50;0.30;;;19.60;99.90;;;;;;5036978;28;20457;-80
2023/09/02 08:03:07;;;;;;;0.50;0.30;;;19.60;99.90;;;;;;5037429;28;20434;-80
2023/09/02 08:05:39;;;;;;;0.50;0.30;;;19.60;99.90;;;;;;5036678;28;20437;-80
2023/09/02 08:08:07;;;;;;;0.50;0.30;;;19.60;99.90;;;;;;5036566;28;20457;-80
2023/09/02 08:10:34;;;;;;;0.50;0.30;;;19.40;99.90;;;;;;5037272;28;20807;-80
2023/09/02 08:13:01;;;;;;;0.50;0.30;;;19.50;99.90;;;;;;5036848;28;20530;-79
2023/09/02 08:15:29;;;;;;;0.50;0.30;;;19.70;99.90;;;;;;5035931;28;20442;-80
2023/09/02 08:17:56;;;;;;;0.50;0.40;;;19.90;99.90;;;;;;5037352;28;20477;-80
2023/09/02 08:20:23;;;;;;;0.50;0.30;;;20.00;99.90;;;;;;5035696;28;20705;-80
2023/09/02 08:22:50;;;;;;;0.50;0.30;;;20.00;99.90;;;;;;5037181;28;20523;-80
2023/09/02 08:25:17;;;;;;;0.50;0.30;;;20.10;99.90;;;;;;5040889;28;20441;-80
2023/09/02 08:27:46;;;;;;;0.50;0.30;;;20.10;99.90;;;;;;5037019;28;20547;-81
2023/09/02 08:30:13;;;;;;;0.50;0.30;;;20.30;99.90;;;;;;5037152;28;20441;-80
2023/09/02 08:32:42;;;;;;;0.50;0.30;;;20.70;99.90;;;;;;5036919;28;20593;-79
2023/09/02 08:35:09;;;;;;;0.50;0.30;;;21.10;99.90;;;;;;5037413;28;20473;-81
2023/09/02 08:37:37;;;;;;;0.50;0.33;;;21.50;99.90;;;;;;5036751;28;21249;-81
2023/09/02 08:40:04;;;;;;;0.50;0.30;;;22.00;99.90;;;;;;5036380;28;20444;-81
2023/09/02 08:42:35;;;;;;;0.50;0.30;;;22.50;99.90;;;;;;5036910;28;20514;-81
2023/09/02 08:45:06;;;;;;;0.50;0.40;;;22.80;99.90;;;;;;5036684;28;20535;-80
2023/09/02 08:47:35;;;;;;;0.50;0.30;;;23.20;99.90;;;;;;5036994;28;20463;-80
2023/09/02 08:50:04;;;;;;;0.50;0.30;;;23.90;99.90;;;;;;5036939;28;20939;-81
2023/09/02 08:52:31;;;;;;;0.50;0.30;;;24.60;99.90;;;;;;5037108;28;20477;-81
2023/09/02 08:54:58;;;;;;;0.50;0.30;;;25.00;99.90;;;;;;5037152;28;20535;-82
2023/09/02 08:57:25;;;;;;;1.60;0.90;;;25.20;99.90;;;;;;5036418;28;20544;-81
2023/09/02 08:59:52;;;;;;;0.50;0.40;;;25.40;99.90;;;;;;5036532;28;21205;-80
2023/09/02 09:02:19;;;;;;;0.50;0.30;;;25.60;99.90;;;;;;5036774;28;20440;-80
2023/09/02 09:04:49;;;;;;;0.50;0.30;;;25.90;99.90;;;;;;5036251;28;20476;-78
2023/09/02 09:07:18;;;;;;;0.50;0.30;;;26.20;99.90;;;;;;5036188;28;20456;-80
2023/09/02 09:09:47;;;;;;;0.50;0.30;;;26.30;99.90;;;;;;5035644;28;20533;-79
2023/09/02 09:12:14;;;;;;;0.50;0.30;;;26.40;99.90;;;;;;5035646;28;20512;-79
2023/09/02 09:14:46;;;;;;;0.50;0.30;;;26.40;99.90;;;;;;5036400;28;20469;-79
2023/09/02 09:17:15;;;;;;;0.50;0.30;;;26.30;99.90;;;;;;5040649;28;20523;-79
2023/09/02 09:19:42;;;;;;;0.50;0.30;;;26.10;99.90;;;;;;5035466;28;20440;-79
2023/09/02 09:22:09;;;;;;;0.50;0.30;;;25.80;99.90;;;;;;5036320;28;20432;-79
2023/09/02 09:24:37;;;;;;;0.50;0.40;;;25.50;99.90;;;;;;5035529;28;20446;-80
2023/09/02 09:27:06;;;;;;;0.50;0.30;;;25.20;99.90;;;;;;5035574;28;20463;-80
2023/09/02 09:29:40;;;;;;;0.50;0.40;;;25.20;99.90;;;;;;5036344;28;20468;-79
2023/09/02 09:32:11;;;;;;;0.50;0.30;;;24.80;99.90;;;;;;5038239;28;21006;-80
2023/09/02 09:34:39;;;;;;;0.50;0.40;;;24.70;99.90;;;;;;5039631;28;20528;-80
2023/09/02 09:37:08;;;;;;;0.50;0.33;;;24.50;99.90;;;;;;5039400;28;20897;-80
2023/09/02 09:39:45;;;;;;;0.50;0.40;;;24.40;99.90;;;;;;5039811;28;20493;-78
2023/09/02 09:42:14;;;;;;;0.50;0.33;;;24.10;99.90;;;;;;5039626;28;20922;-80
2023/09/02 09:44:55;;;;;;;0.50;0.30;;;24.00;99.90;;;;;;5039912;28;20447;-80
2023/09/02 09:47:22;;;;;;;0.50;0.33;;;23.90;99.90;;;;;;5039757;28;20482;-79
2023/09/02 09:49:50;;;;;;;0.50;0.40;;;24.00;99.90;;;;;;5039289;28;20469;-80
2023/09/02 09:52:19;;;;;;;0.50;0.30;;;24.10;99.90;;;;;;5039382;28;20476;-80
2023/09/02 09:54:48;;;;;;;0.50;0.30;;;24.20;99.90;;;;;;5039825;28;20446;-79
2023/09/02 09:57:17;;;;;;;0.50;0.30;;;24.90;99.90;;;;;;5039904;28;20461;-80
2023/09/02 09:59:52;;;;;;;0.50;0.40;;;25.60;99.90;;;;;;5039960;28;20502;-82
2023/09/02 10:02:21;;;;;;;0.50;0.30;;;27.00;99.90;;;;;;5039437;28;20433;-81
2023/09/02 10:04:53;;;;;;;0.50;0.30;;;28.20;99.90;;;;;;5040187;28;20434;-79
2023/09/02 10:07:24;;;;;;;0.50;0.30;;;28.30;99.90;;;;;;5039879;28;20464;-80
2023/09/02 10:09:54;;;;;;;0.50;0.30;;;28.10;99.90;;;;;;5039272;28;20441;-80
2023/09/02 10:12:22;;;;;;;0.50;0.30;;;27.90;99.90;;;;;;5039859;28;21099;-81
2023/09/02 10:14:50;;;;;;;0.50;0.30;;;28.00;99.90;;;;;;5039890;28;20525;-80
2023/09/02 10:17:18;;;;;;;0.50;0.30;;;28.00;99.90;;;;;;5040241;28;20454;-80
2023/09/02 10:19:45;;;;;;;0.50;0.30;;;27.70;99.90;;;;;;5040122;28;20502;-78
2023/09/02 10:22:18;;;;;;;0.50;0.30;;;27.60;99.90;;;;;;5040053;28;20440;-81
2023/09/02 10:24:50;;;;;;;0.50;0.30;;;27.40;99.90;;;;;;5039660;28;20508;-79
2023/09/02 10:27:22;;;;;;;0.50;0.30;;;27.00;99.90;;;;;;5039765;28;20480;-80
2023/09/02 10:29:55;;;;;;;0.50;0.30;;;26.80;99.90;;;;;;5039903;28;20437;-80
2023/09/02 10:32:24;;;;;;;0.50;0.30;;;26.80;99.90;;;;;;5039741;28;20464;-80
2023/09/02 10:34:59;;;;;;;0.50;0.30;;;26.80;99.90;;;;;;5039948;28;20922;-80
2023/09/02 10:37:35;;;;;;;0.50;0.30;;;26.80;99.90;;;;;;5039862;28;20979;-80
2023/09/02 10:40:05;;;;;;;0.50;0.30;;;26.70;99.90;;;;;;5040019;28;20460;-80
2023/09/02 10:42:34;;;;;;;0.50;0.30;;;26.60;99.90;;;;;;5038375;28;20520;-80
2023/09/02 10:45:01;;;;;;;0.50;0.30;;;26.50;99.90;;;;;;5039220;28;20507;-81
2023/09/02 10:47:28;;;;;;;0.50;0.30;;;26.50;99.90;;;;;;5039205;28;20548;-80
2023/09/02 10:49:56;;;;;;;0.50;0.30;;;26.40;99.90;;;;;;5038927;28;20540;-80
2023/09/02 10:52:22;;;;;;;0.50;0.30;;;26.60;99.90;;;;;;5039829;28;20447;-80
2023/09/02 10:55:03;;;;;;;0.50;0.30;;;26.90;99.90;;;;;;5038706;28;20452;-80
2023/09/02 10:57:31;;;;;;;0.50;0.30;;;27.10;99.90;;;;;;5038592;28;20471;-80
2023/09/02 11:00:20;;;;;;;0.50;0.30;;;27.60;99.90;;;;;;5038411;28;20514;-80
2023/09/02 11:02:51;;;;;;;0.50;0.30;;;28.20;99.90;;;;;;5038458;28;20445;-80
2023/09/02 11:05:19;;;;;;;0.50;0.30;;;28.50;99.90;;;;;;5039370;28;20451;-80
2023/09/02 11:07:47;;;;;;;0.50;0.30;;;28.90;99.90;;;;;;5038030;28;20545;-81
2023/09/02 11:10:14;;;;;;;0.50;0.50;;;29.00;99.90;;;;;;5032709;28;20486;-81
2023/09/02 11:13:04;;;;;;;0.50;0.30;;;28.70;99.90;;;;;;5040403;28;20570;-78
2023/09/02 11:15:33;;;;;;;0.50;0.30;;;28.60;99.90;;;;;;5039965;28;20440;-81
2023/09/02 11:18:28;;;;;;;0.50;0.30;;;28.10;99.90;;;;;;5031917;28;20459;-80
2023/09/02 11:20:55;;;;;;;0.50;0.30;;;27.80;99.90;;;;;;5045072;28;20853;-80
2023/09/02 11:23:23;;;;;;;0.50;0.30;;;27.70;99.90;;;;;;5042270;28;20529;-81
2023/09/02 11:26:01;;;;;;;0.50;0.30;;;27.80;99.90;;;;;;5037803;28;20452;-80
2023/09/02 11:28:28;;;;;;;0.50;0.30;;;27.70;99.90;;;;;;5038343;28;20472;-80
2023/09/02 11:31:09;;;;;;;0.50;0.30;;;27.70;99.90;;;;;;5037508;28;20506;-81
2023/09/02 11:33:38;;;;;;;0.50;0.30;;;27.90;99.90;;;;;;5038442;28;20469;-80
2023/09/02 11:36:07;;;;;;;0.50;0.30;;;28.60;99.90;;;;;;5029828;28;20512;-82
2023/09/02 11:38:35;;;;;;;0.50;0.30;;;29.10;99.90;;;;;;5038022;28;20572;-81
2023/09/02 11:41:01;;;;;;;0.50;0.30;;;29.60;99.90;;;;;;5038876;28;20472;-81
2023/09/02 11:43:31;;;;;;;0.50;0.30;;;29.50;99.90;;;;;;5038367;28;20438;-81
2023/09/02 11:45:58;;;;;;;0.50;0.30;;;29.10;99.90;;;;;;5038007;28;20478;-81
2023/09/02 11:48:27;;;;;;;0.50;0.33;;;28.70;99.90;;;;;;5037727;28;20457;-81
2023/09/02 11:50:55;;;;;;;3.33;2.33;;;28.40;99.90;;;;;;5036531;28;20504;-80
2023/09/02 11:53:24;;;;;;;0.50;0.30;;;27.90;99.90;;;;;;5038141;28;20477;-81
2023/09/02 11:55:51;;;;;;;0.50;0.30;;;27.70;99.90;;;;;;5037578;28;20529;-80
2023/09/02 11:58:19;;;;;;;0.50;0.30;;;27.30;99.90;;;;;;5037865;28;20460;-81
2023/09/02 12:00:46;;;;;;;0.50;0.30;;;27.00;99.90;;;;;;5037334;28;20441;-80
2023/09/02 12:03:15;;;;;;;0.50;0.30;;;26.90;99.90;;;;;;5037529;28;20528;-81
2023/09/02 12:05:49;;;;;;;0.50;0.40;;;26.80;99.90;;;;;;5038353;28;20526;-80
2023/09/02 12:08:17;;;;;;;0.50;0.30;;;26.70;99.90;;;;;;5023002;28;20451;-81
2023/09/02 12:10:46;;;;;;;0.50;0.30;;;26.60;99.90;;;;;;5037042;28;20441;-80
2023/09/02 12:13:13;;;;;;;0.50;0.40;;;26.50;99.90;;;;;;5037450;28;20562;-81
2023/09/02 12:15:40;;;;;;;0.50;0.30;;;26.30;99.90;;;;;;5036998;28;20535;-81
2023/09/02 12:18:07;;;;;;;0.50;0.30;;;26.10;99.90;;;;;;5037192;28;20464;-80
2023/09/02 12:20:34;;;;;;;0.50;0.30;;;26.00;99.90;;;;;;5036909;28;20474;-81
2023/09/02 12:23:03;;;;;;;0.50;0.40;;;25.70;99.90;;;;;;5036759;28;20468;-80
2023/09/02 12:25:30;;;;;;;0.50;0.30;;;25.50;99.90;;;;;;5037671;28;20445;-81
2023/09/02 12:28:10;;;;;;;0.50;0.30;;;25.40;99.90;;;;;;5036612;28;20470;-80
2023/09/02 12:30:37;;;;;;;0.50;0.30;;;25.10;99.90;;;;;;5036540;28;20526;-80
2023/09/02 12:33:05;;;;;;;0.50;0.40;;;25.10;99.90;;;;;;5036645;28;20507;-79
2023/09/02 12:35:32;;;;;;;0.50;0.30;;;25.00;99.90;;;;;;5037425;28;20443;-80
2023/09/02 12:38:04;;;;;;;0.50;0.30;;;25.00;99.90;;;;;;5036964;28;21020;-80
2023/09/02 12:40:32;;;;;;;0.50;0.30;;;25.00;99.90;;;;;;5037153;28;20474;-80
2023/09/02 12:43:00;;;;;;;0.50;0.30;;;25.20;99.90;;;;;;5036807;28;20509;-81
2023/09/02 12:45:32;;;;;;;0.50;0.30;;;25.20;99.90;;;;;;5036491;28;20472;-80
2023/09/02 12:48:00;;;;;;;0.50;0.30;;;25.30;99.90;;;;;;5036865;28;20820;-80
2023/09/02 12:50:28;;;;;;;0.50;0.30;;;25.40;99.90;;;;;;5037022;28;20528;-81
2023/09/02 12:52:57;;;;;;;0.50;0.30;;;25.90;99.90;;;;;;5036261;28;20518;-80